Time;durP1;ratioP1;P1;durP2;ratioP2;P2;SDS_P1;SDS_P2;PMS_P1;PMS_P2;Temp;Humidity;BMP_temperature;BMP_pressure;BME280_temperature;BME280_humidity;BME280_pressure;Samples;Min_cycle;Max_cycle;Signal;HPM_P1;HPM_P2
2022/01/24 00:02:25;;;;;;;;;40.00;32.25;;;;;5.00;65.22;102536.63;4862049;29;45416;-55
2022/01/24 00:04:50;;;;;;;;;43.40;31.20;;;;;5.25;66.14;102582.66;4862340;29;45287;-58
2022/01/24 00:07:20;;;;;;;;;43.50;32.50;;;;;5.35;65.80;102596.34;4862018;29;45343;-55
2022/01/24 00:09:45;;;;;;;;;36.00;29.40;;;;;5.36;65.11;102600.78;4863511;29;45650;-55
2022/01/24 00:12:25;;;;;;;;;39.00;32.00;;;;;5.18;65.64;102573.28;4846357;29;45434;-56
2022/01/24 00:17:47;;;;;;;;;35.80;28.40;;;;;5.04;65.79;102563.56;4865137;29;46126;-54
2022/01/24 00:28:25;;;;;;;;;36.20;29.00;;;;;4.96;66.08;102554.19;4868186;29;45362;-50
2022/01/24 00:30:50;;;;;;;;;37.25;28.00;;;;;5.21;65.36;102594.78;4865583;29;45480;-51
2022/01/24 00:33:18;;;;;;;;;27.25;24.00;;;;;5.19;65.82;102588.63;4850005;29;45355;-56
2022/01/24 00:35:43;;;;;;;;;41.20;30.80;;;;;5.06;66.00;102562.44;4882267;29;45293;-57
2022/01/24 00:38:09;;;;;;;;;37.00;27.75;;;;;5.18;66.05;102576.00;4881625;29;45263;-56
2022/01/24 00:40:39;;;;;;;;;42.25;35.00;;;;;5.08;65.55;102581.38;4864509;29;45939;-58
2022/01/24 00:43:11;;;;;;;;;39.60;32.40;;;;;5.07;66.00;102579.66;4881484;29;45362;-52
2022/01/24 00:45:52;;;;;;;;;33.20;27.40;;;;;4.96;66.34;102554.19;4864016;29;45367;-51
2022/01/24 00:56:24;;;;;;;;;38.80;30.60;;;;;5.11;66.38;102562.03;4874499;29;45262;-52
2022/01/24 00:58:50;;;;;;;;;44.75;38.50;;;;;5.06;65.44;102545.25;4878043;29;46051;-50
2022/01/24 01:01:15;;;;;;;;;37.75;28.25;;;;;5.14;65.63;102561.78;4862305;29;45343;-49
2022/01/24 01:03:41;;;;;;;;;32.25;27.25;;;;;5.11;66.12;102562.03;4881072;29;45398;-52
2022/01/24 01:06:08;;;;;;;;;39.25;30.75;;;;;4.84;65.93;102518.00;4881368;29;45447;-53
2022/01/24 01:19:31;;;;;;;;;40.00;36.00;;;;;4.92;66.35;102533.69;4861574;29;45817;-51
2022/01/24 01:21:56;;;;;;;;;38.00;30.50;;;;;5.09;65.81;102566.75;4844859;29;45798;-54
2022/01/24 01:24:23;;;;;;;;;45.75;38.50;;;;;5.08;65.63;102560.44;4861636;29;45462;-52
2022/01/24 01:26:55;;;;;;;;;33.40;25.20;;;;;5.11;66.15;102564.75;4862054;29;45562;-51
2022/01/24 01:29:29;;;;;;;;;37.00;31.60;;;;;5.04;65.55;102549.94;4845073;29;47148;-59
2022/01/24 01:53:49;;;;;;;;;38.80;32.60;;;;;5.05;65.73;102555.28;4843382;29;45305;-52
2022/01/24 01:56:12;;;;;;;;;36.40;31.20;;;;;5.04;66.32;102552.69;4842847;29;45430;-53
2022/01/24 01:58:37;;;;;;;;;40.75;33.25;;;;;5.01;66.50;102560.13;4842134;29;45376;-51
2022/01/24 02:01:04;;;;;;;;;34.00;30.50;;;;;4.99;65.45;102562.13;4842993;29;45654;-51
2022/01/24 02:03:29;;;;;;;;;39.80;28.00;;;;;4.91;65.54;102550.16;4841309;29;45515;-51
2022/01/24 02:05:55;;;;;;;;;41.50;35.00;;;;;4.98;66.22;102554.06;4843218;29;45320;-51
2022/01/24 02:08:26;;;;;;;;;35.50;26.50;;;;;4.99;66.60;102562.13;4841571;29;45422;-55
2022/01/24 02:10:52;;;;;;;;;41.80;30.20;;;;;4.96;66.03;102559.63;4842788;29;45955;-50
2022/01/24 02:13:17;;;;;;;;;35.00;31.00;;;;;4.91;65.31;102561.88;4842749;29;45410;-49
2022/01/24 02:15:56;;;;;;;;;39.75;35.00;;;;;4.82;65.55;102549.06;4842933;29;45389;-52
2022/01/24 02:21:08;;;;;;;;;34.00;27.75;;;;;4.92;66.90;102560.91;4861063;29;45828;-56
2022/01/24 02:23:42;;;;;;;;;41.40;36.00;;;;;4.91;66.22;102561.88;4875015;29;45602;-49
2022/01/24 02:26:11;;;;;;;;;38.60;34.60;;;;;4.88;66.44;102552.16;4875255;29;45329;-52
2022/01/24 02:29:16;;;;;;;;;49.40;36.80;;;;;4.31;66.19;102457.13;4861027;29;45438;-53
2022/01/24 02:34:28;;;;;;;;;46.60;35.80;;;;;4.86;66.50;102540.50;4860845;29;45515;-53
2022/01/24 02:36:59;;;;;;;;;35.20;30.40;;;;;4.85;65.64;102540.63;4860804;29;45434;-50
2022/01/24 02:53:11;;;;;;;;;34.80;31.80;;;;;4.78;66.98;102536.69;4877881;29;45838;-50
2022/01/24 02:55:38;;;;;;;;;47.00;28.50;;;;;4.78;66.23;102528.53;4879088;29;45849;-53
2022/01/24 02:58:03;;;;;;;;;43.20;35.20;;;;;4.78;66.42;102525.81;4862333;29;45983;-49
2022/01/24 03:00:29;;;;;;;;;34.75;31.50;;;;;4.74;65.73;102517.94;4862281;29;45741;-53
2022/01/24 03:02:54;;;;;;;;;40.25;32.50;;;;;4.53;66.57;102482.50;4870113;29;46058;-50
2022/01/24 03:05:20;;;;;;;;;41.00;34.25;;;;;4.65;66.20;102504.25;4862225;29;45435;-51
2022/01/24 03:07:45;;;;;;;;;38.00;30.75;;;;;4.73;65.82;102524.38;4857898;29;45560;-52
2022/01/24 03:10:24;;;;;;;;;35.00;31.25;;;;;4.72;66.63;102530.81;4876937;29;45497;-51
2022/01/24 03:12:59;;;;;;;;;35.40;30.00;;;;;4.47;66.07;102480.31;4875886;29;45360;-50
2022/01/24 03:15:25;;;;;;;;;42.20;30.00;;;;;4.72;67.03;102527.22;4877098;29;45438;-52
2022/01/24 03:17:50;;;;;;;;;43.00;32.60;;;;;4.69;65.92;102517.44;4877671;29;45448;-49
2022/01/24 03:20:16;;;;;;;;;48.75;38.75;;;;;4.68;66.36;102513.00;4859974;29;45523;-49
2022/01/24 03:22:41;;;;;;;;;42.25;36.00;;;;;4.65;66.19;102506.97;4858460;29;45647;-50
2022/01/24 03:25:07;;;;;;;;;36.50;33.75;;;;;4.67;66.94;102511.28;4859968;29;45312;-51
2022/01/24 03:27:32;;;;;;;;;40.00;36.25;;;;;4.66;66.75;102511.41;4859759;29;45457;-50
2022/01/24 03:29:58;;;;;;;;;41.50;37.25;;;;;4.59;66.50;102509.19;4860567;29;45407;-50
2022/01/24 03:32:23;;;;;;;;;33.00;30.50;;;;;4.54;65.95;102506.00;4860363;29;45480;-51
2022/01/24 03:34:49;;;;;;;;;35.50;32.00;;;;;4.46;66.83;102489.47;4860040;29;45253;-51
2022/01/24 03:37:14;;;;;;;;;43.75;32.50;;;;;4.57;66.76;102505.75;4860165;29;45315;-56
2022/01/24 03:39:40;;;;;;;;;33.00;26.25;;;;;4.53;67.19;102503.44;4860523;29;45355;-52
2022/01/24 03:42:05;;;;;;;;;38.50;35.75;;;;;4.55;66.16;102505.03;4858231;29;47561;-53
2022/01/24 03:44:31;;;;;;;;;44.00;34.50;;;;;4.53;66.17;102497.97;4860026;29;45203;-48
2022/01/24 03:52:10;;;;;;;;;50.20;35.80;;;;;4.49;66.22;102494.66;4860027;29;45408;-53
2022/01/24 03:54:35;;;;;;;;;37.00;32.25;;;;;4.50;66.71;102499.09;4860144;29;45684;-53
2022/01/24 03:57:02;;;;;;;;;47.50;37.25;;;;;4.52;66.09;102501.66;4843475;29;45464;-51
2022/01/24 03:59:30;;;;;;;;;43.60;31.40;;;;;4.43;67.25;102489.72;4843708;29;45711;-54
2022/01/24 04:01:59;;;;;;;;;42.40;35.40;;;;;4.50;66.47;102498.22;4860355;29;45720;-57
2022/01/24 04:04:25;;;;;;;;;50.60;36.60;;;;;4.46;67.05;102489.47;4860053;29;45685;-54
2022/01/24 04:06:50;;;;;;;;;38.40;33.40;;;;;4.35;66.34;102493.06;4863055;29;45404;-54
2022/01/24 04:09:16;;;;;;;;;33.75;29.50;;;;;4.37;66.74;102488.38;4863305;29;45889;-51
2022/01/24 04:11:41;;;;;;;;;34.25;28.75;;;;;4.38;67.02;102479.22;4862950;29;46078;-50
2022/01/24 04:22:14;;;;;;;;;33.80;32.20;;;;;4.39;66.93;102483.69;4881374;29;46006;-52
2022/01/24 04:24:40;;;;;;;;;33.40;27.80;;;;;4.38;66.93;102475.66;4881403;29;45505;-53
2022/01/24 04:27:05;;;;;;;;;41.00;36.60;;;;;4.38;67.06;102481.09;4881167;29;45391;-52
2022/01/24 04:29:32;;;;;;;;;38.75;30.00;;;;;4.33;66.32;102473.31;4882929;29;45384;-50
2022/01/24 04:31:57;;;;;;;;;26.40;22.80;;;;;4.34;66.74;102473.16;4881157;29;45379;-49
2022/01/24 04:34:23;;;;;;;;;42.25;34.00;;;;;4.37;66.44;102485.66;4881435;29;45427;-52
2022/01/24 04:36:48;;;;;;;;;37.75;31.25;;;;;4.39;66.71;102483.69;4879922;29;45382;-52
2022/01/24 04:39:14;;;;;;;;;36.25;31.00;;;;;4.33;67.20;102485.03;4864684;29;45211;-53
2022/01/24 04:41:44;;;;;;;;;32.25;27.25;;;;;4.33;66.27;102492.34;4864705;29;45418;-51
2022/01/24 04:46:57;;;;;;;;;35.50;25.50;;;;;4.34;66.62;102494.06;4864899;29;45455;-51
2022/01/24 04:54:52;;;;;;;;;36.80;30.00;;;;;4.31;66.60;102480.72;4866655;29;45428;-54
2022/01/24 04:57:19;;;;;;;;;44.00;37.75;;;;;4.37;66.37;102480.22;4879733;29;45333;-52
2022/01/24 04:59:47;;;;;;;;;41.40;33.60;;;;;4.18;66.08;102453.72;4853030;29;45891;-50
2022/01/24 05:02:13;;;;;;;;;32.20;28.20;;;;;4.34;66.99;102485.91;4863901;29;46634;-55
2022/01/24 05:04:39;;;;;;;;;37.80;26.20;;;;;4.32;66.76;102483.31;4880720;29;45427;-50
2022/01/24 05:07:04;;;;;;;;;36.75;30.25;;;;;4.13;66.42;102462.25;4880596;29;45369;-49
2022/01/24 05:09:35;;;;;;;;;37.25;27.00;;;;;4.26;66.55;102483.81;4848205;29;45388;-51
2022/01/24 05:12:12;;;;;;;;;41.60;34.00;;;;;4.25;67.03;102481.22;4864130;29;47531;-55
2022/01/24 05:25:34;;;;;;;;;38.40;32.80;;;;;4.23;67.34;102483.22;4847417;29;45790;-51
2022/01/24 05:27:59;;;;;;;;;33.75;28.50;;;;;4.21;67.09;102483.34;4845013;29;45420;-53
2022/01/24 05:30:25;;;;;;;;;31.50;26.00;;;;;4.20;67.11;102481.63;4844958;29;45357;-53
2022/01/24 05:32:50;;;;;;;;;40.50;36.75;;;;;3.96;66.80;102444.63;4861385;29;45383;-53
2022/01/24 05:35:16;;;;;;;;;33.00;25.50;;;;;4.17;66.79;102485.44;4861503;29;45332;-55
2022/01/24 05:37:41;;;;;;;;;42.50;32.00;;;;;4.17;66.38;102482.72;4844622;29;45387;-49
2022/01/24 05:40:07;;;;;;;;;46.00;33.75;;;;;4.17;67.00;102482.72;4844758;29;45590;-53
2022/01/24 05:42:33;;;;;;;;;39.75;33.00;;;;;4.18;67.56;102478.16;4859873;29;45497;-51
2022/01/24 05:44:59;;;;;;;;;44.00;32.25;;;;;4.19;67.12;102478.06;4844736;29;45436;-50
2022/01/24 05:47:24;;;;;;;;;38.50;33.00;;;;;3.99;67.36;102441.63;4861424;29;45714;-54
2022/01/24 05:49:50;;;;;;;;;37.00;31.50;;;;;4.18;66.91;102476.31;4841461;29;45492;-55
2022/01/24 05:52:15;;;;;;;;;37.25;30.00;;;;;4.16;66.71;102467.41;4825890;29;47158;-52
2022/01/24 05:54:41;;;;;;;;;36.25;27.75;;;;;4.16;66.94;102472.00;4842547;29;45493;-51
2022/01/24 05:57:07;;;;;;;;;38.00;36.00;;;;;4.09;67.67;102470.75;4841545;29;45348;-50
2022/01/24 05:59:33;;;;;;;;;39.00;34.25;;;;;4.14;67.48;102484.84;4841367;29;45369;-50
2022/01/24 06:01:58;;;;;;;;;40.75;30.75;;;;;4.12;66.97;102481.41;4824153;29;45963;-54
2022/01/24 06:04:24;;;;;;;;;37.25;34.25;;;;;4.10;67.06;102478.78;4857608;29;45294;-51
2022/01/24 06:06:49;;;;;;;;;49.50;38.50;;;;;4.09;67.40;102482.50;4856929;29;45414;-51
2022/01/24 06:09:15;;;;;;;;;38.00;29.50;;;;;4.10;67.01;102473.34;4860186;29;45457;-50
2022/01/24 06:11:41;;;;;;;;;36.50;32.50;;;;;3.89;67.16;102427.09;4857272;29;46319;-49
2022/01/24 06:14:06;;;;;;;;;37.50;30.50;;;;;4.05;67.19;102481.91;4874863;29;45455;-49
2022/01/24 06:16:32;;;;;;;;;32.00;29.00;;;;;3.86;67.04;102455.38;4861075;29;45426;-51
2022/01/24 06:18:57;;;;;;;;;42.00;33.00;;;;;3.99;67.41;102470.69;4858885;29;45495;-50
2022/01/24 06:21:23;;;;;;;;;35.75;33.50;;;;;4.01;66.89;102477.69;4842413;29;45398;-50
2022/01/24 06:23:48;;;;;;;;;36.25;32.25;;;;;3.96;67.61;102485.38;4842001;29;45421;-53
2022/01/24 06:26:14;;;;;;;;;43.50;33.00;;;;;3.97;67.68;102486.22;4842717;29;45430;-49
2022/01/24 06:28:40;;;;;;;;;41.00;33.00;;;;;3.98;67.95;102487.94;4842755;29;45282;-50
2022/01/24 06:31:05;;;;;;;;;44.50;37.00;;;;;3.84;67.80;102467.34;4841700;29;45477;-52
2022/01/24 06:33:31;;;;;;;;;40.00;34.75;;;;;3.87;67.25;102480.69;4842544;29;45265;-50
2022/01/24 06:35:56;;;;;;;;;45.75;35.75;;;;;3.96;67.48;102493.53;4841104;29;45377;-49
2022/01/24 06:38:22;;;;;;;;;47.25;37.25;;;;;3.90;67.57;102488.59;4841297;29;45316;-53
2022/01/24 06:40:47;;;;;;;;;39.25;35.25;;;;;3.90;67.70;102492.16;4840375;29;45570;-53
2022/01/24 06:43:13;;;;;;;;;34.50;27.25;;;;;3.60;67.50;102450.22;4841056;29;45384;-53
2022/01/24 06:45:38;;;;;;;;;42.75;33.00;;;;;3.83;67.73;102499.06;4841010;29;45412;-53
2022/01/24 06:48:04;;;;;;;;;49.50;35.75;;;;;3.66;68.11;102454.28;4842486;29;45559;-54
2022/01/24 06:50:29;;;;;;;;;43.50;37.00;;;;;3.90;67.58;102494.03;4853877;29;46312;-53
2022/01/24 06:52:55;;;;;;;;;40.50;32.50;;;;;3.92;67.42;102498.34;4861006;29;45344;-52
2022/01/24 06:55:20;;;;;;;;;36.00;31.25;;;;;3.97;68.26;102502.53;4861015;29;45305;-51
2022/01/24 06:57:46;;;;;;;;;32.25;29.25;;;;;3.97;67.39;102499.81;4861255;29;45313;-56
2022/01/24 07:00:12;;;;;;;;;44.75;37.25;;;;;3.95;67.70;102496.38;4860486;29;46719;-54
2022/01/24 07:02:37;;;;;;;;;43.75;33.75;;;;;3.56;67.57;102435.16;4860466;29;45348;-52
2022/01/24 07:05:03;;;;;;;;;40.25;35.50;;;;;3.85;67.70;102472.66;4843952;29;45402;-53
2022/01/24 07:07:30;;;;;;;;;41.00;29.00;;;;;3.93;67.74;102494.66;4844272;29;45571;-53
2022/01/24 07:09:55;;;;;;;;;43.00;33.80;;;;;3.95;67.84;102502.66;4860477;29;45485;-52
2022/01/24 07:12:22;;;;;;;;;40.50;34.00;;;;;3.97;67.60;102499.81;4860803;29;45320;-52
2022/01/24 07:14:48;;;;;;;;;38.60;33.80;;;;;3.97;67.72;102506.13;4860437;29;45515;-54
2022/01/24 07:17:29;;;;;;;;;36.40;29.60;;;;;3.98;67.36;102502.41;4860193;29;45333;-53
2022/01/24 07:19:55;;;;;;;;;35.20;31.60;;;;;3.92;68.02;102495.63;4869620;29;46723;-51
2022/01/24 07:22:20;;;;;;;;;43.25;37.25;;;;;3.91;67.31;102506.63;4879286;29;45413;-51
2022/01/24 07:24:46;;;;;;;;;46.25;38.00;;;;;3.90;67.38;102513.03;4879253;29;45537;-50
2022/01/24 07:27:11;;;;;;;;;35.25;29.50;;;;;3.90;67.26;102508.47;4879283;29;45953;-53
2022/01/24 07:29:37;;;;;;;;;39.50;30.00;;;;;3.89;67.68;102505.88;4879210;29;45352;-52
2022/01/24 07:32:02;;;;;;;;;39.00;31.50;;;;;3.93;67.46;102497.34;4879089;29;45405;-55
2022/01/24 07:34:28;;;;;;;;;34.00;29.00;;;;;3.97;67.54;102505.25;4878664;29;45292;-53
2022/01/24 07:36:57;;;;;;;;;38.50;30.25;;;;;3.95;67.22;102502.66;4879276;29;45696;-52
2022/01/24 07:39:23;;;;;;;;;42.40;33.60;;;;;3.72;67.43;102470.06;4878589;29;46791;-55
2022/01/24 07:41:48;;;;;;;;;42.50;36.25;;;;;3.92;67.53;102502.91;4882098;29;45442;-52
2022/01/24 07:44:15;;;;;;;;;41.50;31.75;;;;;3.89;67.39;102504.00;4882422;29;45414;-49
2022/01/24 07:46:40;;;;;;;;;40.00;34.00;;;;;3.93;67.31;102504.63;4882118;29;45329;-53
2022/01/24 07:49:07;;;;;;;;;35.00;30.25;;;;;3.95;67.32;102502.66;4881720;29;46058;-53
2022/01/24 07:51:33;;;;;;;;;37.40;34.60;;;;;3.34;67.32;102411.56;4864844;29;45402;-50
2022/01/24 07:53:59;;;;;;;;;39.60;32.40;;;;;3.68;67.63;102470.44;4865087;29;45395;-53
2022/01/24 07:56:25;;;;;;;;;36.75;30.50;;;;;3.92;66.76;102514.66;4849410;29;45399;-53
2022/01/24 07:58:50;;;;;;;;;42.00;33.75;;;;;3.91;67.60;102515.63;4881888;29;46257;-51
2022/01/24 08:01:16;;;;;;;;;39.50;30.50;;;;;3.91;67.22;102522.91;4864848;29;45657;-51
2022/01/24 08:03:42;;;;;;;;;36.25;33.25;;;;;3.90;67.26;102515.75;4849411;29;45545;-53
2022/01/24 08:06:08;;;;;;;;;43.00;35.25;;;;;3.76;67.48;102508.72;4882195;29;45435;-50
2022/01/24 08:08:33;;;;;;;;;35.25;31.75;;;;;3.65;67.84;102479.72;4849369;29;45874;-52
2022/01/24 08:10:59;;;;;;;;;41.50;33.50;;;;;3.87;67.03;102526.84;4881646;29;45429;-49
2022/01/24 08:13:25;;;;;;;;;41.40;33.80;;;;;3.65;67.81;102486.00;4881583;29;45429;-49
2022/01/24 08:15:50;;;;;;;;;41.75;38.75;;;;;3.30;66.92;102435.38;4881721;29;45492;-54
2022/01/24 08:18:16;;;;;;;;;34.00;32.75;;;;;3.95;67.32;102527.09;4864672;29;45510;-54
2022/01/24 08:20:42;;;;;;;;;33.50;30.00;;;;;4.00;67.28;102524.03;4822471;29;45587;-52
2022/01/24 08:23:10;;;;;;;;;41.50;31.50;;;;;4.01;66.81;102529.31;4863445;29;45651;-49
2022/01/24 08:25:36;;;;;;;;;40.40;35.00;;;;;4.00;67.33;102538.47;4830919;29;46030;-54
2022/01/24 08:28:01;;;;;;;;;49.50;41.50;;;;;3.94;67.42;102525.38;4863193;29;46330;-51
2022/01/24 08:30:27;;;;;;;;;44.75;36.25;;;;;3.97;67.76;102537.84;4865097;29;45439;-55
2022/01/24 08:32:52;;;;;;;;;43.50;35.00;;;;;3.99;67.68;102533.19;4846189;29;45257;-54
2022/01/24 08:35:19;;;;;;;;;46.25;33.00;;;;;3.92;66.77;102528.25;4863031;29;45569;-56
2022/01/24 08:37:44;;;;;;;;;41.60;35.00;;;;;3.42;66.82;102441.66;4845867;29;45471;-52
2022/01/24 08:40:12;;;;;;;;;44.75;38.25;;;;;4.06;67.33;102540.69;4862549;29;45588;-51
2022/01/24 08:42:54;;;;;;;;;47.60;41.00;;;;;4.09;66.67;102539.56;4862044;29;45862;-51
2022/01/24 08:48:03;;;;;;;;;43.60;35.60;;;;;4.17;67.35;102542.53;4861179;29;45921;-56
2022/01/24 08:50:29;;;;;;;;;43.25;38.25;;;;;4.18;66.93;102540.69;4861491;29;45419;-52
2022/01/24 08:52:59;;;;;;;;;48.75;40.25;;;;;4.19;67.26;102551.44;4844850;29;45416;-51
2022/01/24 08:55:31;;;;;;;;;42.40;32.20;;;;;4.19;66.94;102542.41;4847035;29;45765;-56
2022/01/24 08:57:57;;;;;;;;;38.20;34.20;;;;;4.20;66.55;102547.72;4862730;29;46132;-54
2022/01/24 09:00:23;;;;;;;;;32.80;31.00;;;;;4.24;66.18;102545.63;4862672;29;45245;-55
2022/01/24 09:02:50;;;;;;;;;49.75;39.25;;;;;4.25;66.65;102544.63;4862261;29;45212;-52
2022/01/24 09:05:17;;;;;;;;;44.50;33.25;;;;;4.27;66.23;102541.78;4862375;29;45586;-52
2022/01/24 09:07:43;;;;;;;;;53.40;42.00;;;;;4.30;67.01;102547.84;4861476;29;46613;-53
2022/01/24 09:10:09;;;;;;;;;45.80;41.80;;;;;4.25;66.80;102555.50;4861903;29;45310;-54
2022/01/24 09:12:34;;;;;;;;;41.75;34.25;;;;;4.17;66.62;102536.25;4845404;29;45505;-55
2022/01/24 09:15:00;;;;;;;;;51.75;34.50;;;;;4.31;66.75;102551.41;4862217;29;46136;-56
2022/01/24 09:17:26;;;;;;;;;50.75;42.75;;;;;4.30;66.57;102541.53;4844860;29;47629;-56
2022/01/24 09:19:51;;;;;;;;;46.75;37.50;;;;;4.39;65.94;102559.81;4864185;28;45468;-55
2022/01/24 09:22:17;;;;;;;;;41.25;33.50;;;;;4.41;66.15;102560.53;4816115;29;45407;-55
2022/01/24 09:24:42;;;;;;;;;51.50;38.25;;;;;4.44;66.52;102551.28;4844262;29;45701;-57
2022/01/24 09:27:08;;;;;;;;;43.00;37.25;;;;;4.41;66.53;102552.38;4861532;29;46694;-52
2022/01/24 09:29:33;;;;;;;;;38.00;30.50;;;;;4.48;66.66;102556.31;4857195;29;45925;-54
2022/01/24 09:31:59;;;;;;;;;45.00;33.25;;;;;4.48;66.04;102547.28;4859468;29;45454;-53
2022/01/24 09:34:24;;;;;;;;;39.75;36.25;;;;;4.43;65.98;102544.97;4857846;29;45804;-51
2022/01/24 09:36:50;;;;;;;;;40.50;36.50;;;;;4.15;65.96;102492.88;4855518;29;45543;-55
2022/01/24 09:39:16;;;;;;;;;44.50;37.00;;;;;4.53;65.98;102555.94;4859237;29;45745;-52
2022/01/24 09:41:42;;;;;;;;;47.50;39.75;;;;;4.55;66.44;102558.53;4876373;29;45524;-51
2022/01/24 09:44:07;;;;;;;;;44.75;32.00;;;;;4.53;65.78;102555.09;4875998;29;45792;-51
2022/01/24 09:46:37;;;;;;;;;47.50;38.00;;;;;4.54;66.45;102545.94;4876273;29;45423;-50
2022/01/24 09:49:03;;;;;;;;;48.80;37.00;;;;;4.38;65.36;102513.72;4860648;29;45463;-53
2022/01/24 09:51:28;;;;;;;;;50.00;40.20;;;;;4.53;65.65;102542.34;4840602;29;45454;-52
2022/01/24 09:53:55;;;;;;;;;46.75;39.25;;;;;4.56;66.51;102550.25;4838103;29;45482;-50
2022/01/24 09:56:20;;;;;;;;;53.60;43.20;;;;;4.64;66.40;102555.03;4841865;29;46753;-52
2022/01/24 09:58:46;;;;;;;;;46.50;39.00;;;;;4.63;65.63;102556.03;4859266;29;45326;-55
2022/01/24 10:01:13;;;;;;;;;48.25;41.25;;;;;4.64;66.16;102563.19;4870791;29;45516;-58
2022/01/24 10:03:39;;;;;;;;;47.20;40.60;;;;;4.63;65.67;102561.47;4871476;29;45719;-55
2022/01/24 10:06:05;;;;;;;;;49.00;34.50;;;;;4.64;65.24;102562.34;4875803;29;46512;-53
2022/01/24 10:08:31;;;;;;;;;44.75;38.00;;;;;4.65;65.17;102558.63;4875759;29;45529;-54
2022/01/24 10:11:01;;;;;;;;;49.00;37.50;;;;;4.53;65.12;102525.19;4859130;29;45814;-51
2022/01/24 10:18:57;;;;;;;;;45.00;37.25;;;;;4.81;65.40;102556.34;4875955;29;45843;-55
2022/01/24 10:21:23;;;;;;;;;51.20;40.40;;;;;4.86;65.38;102555.97;4820816;29;45987;-53
2022/01/24 10:23:48;;;;;;;;;45.50;37.25;;;;;4.93;66.00;102556.31;4845746;29;45489;-57
2022/01/24 10:26:14;;;;;;;;;45.50;36.75;;;;;4.29;65.20;102420.19;4855835;29;47060;-56
2022/01/24 10:28:43;;;;;;;;;44.75;36.75;;;;;5.06;65.78;102548.84;4854633;29;45609;-55
2022/01/24 10:31:21;;;;;;;;;43.60;34.20;;;;;5.08;64.65;102544.09;4864764;29;45464;-51
2022/01/24 10:34:01;;;;;;;;;46.00;39.60;;;;;5.13;63.98;102552.75;4855209;29;45704;-53
2022/01/24 10:36:46;;;;;;;;;41.40;34.00;;;;;4.79;64.57;102486.75;4855945;29;46713;-52
2022/01/24 10:39:12;;;;;;;;;41.00;34.60;;;;;5.19;63.61;102545.94;4855762;29;45549;-53
2022/01/24 10:41:55;;;;;;;;;46.75;38.25;;;;;5.18;64.17;102546.06;4862504;29;45478;-51
2022/01/24 10:44:47;;;;;;;;;39.80;34.60;;;;;5.22;63.97;102548.38;4874811;29;45477;-52
2022/01/24 10:47:44;;;;;;;;;40.20;37.00;;;;;5.27;63.83;102543.41;4853016;29;46855;-53
2022/01/24 10:50:11;;;;;;;;;49.40;39.40;;;;;5.34;64.39;102538.28;4851285;29;45859;-51
2022/01/24 10:52:36;;;;;;;;;49.20;41.20;;;;;5.38;64.26;102539.75;4836768;29;45509;-51
2022/01/24 10:55:19;;;;;;;;;41.75;37.00;;;;;5.42;63.74;102524.00;4849629;29;45427;-56
2022/01/24 10:57:47;;;;;;;;;45.00;40.40;;;;;5.31;63.84;102500.44;4854418;29;46485;-53
2022/01/24 11:00:16;;;;;;;;;43.00;33.60;;;;;5.49;62.62;102524.34;4838273;29;45490;-51
2022/01/24 11:02:43;;;;;;;;;36.40;33.20;;;;;5.50;63.47;102516.03;4854502;29;45356;-50
2022/01/24 11:05:15;;;;;;;;;35.60;31.60;;;;;5.50;62.13;102510.56;4853485;29;45416;-50
2022/01/24 11:07:57;;;;;;;;;49.00;40.20;;;;;5.37;62.69;102485.41;4855452;29;46185;-52
2022/01/24 11:10:25;;;;;;;;;40.40;35.60;;;;;5.56;62.22;102510.03;4857023;29;45876;-52
2022/01/24 11:12:52;;;;;;;;;42.20;34.40;;;;;5.47;62.68;102489.06;4874703;29;45411;-51
2022/01/24 11:15:18;;;;;;;;;48.60;42.40;;;;;5.64;61.96;102509.38;4869502;29;45565;-50
2022/01/24 11:17:44;;;;;;;;;43.00;37.75;;;;;5.72;62.24;102513.28;4841808;29;45697;-59
2022/01/24 11:20:12;;;;;;;;;40.60;34.20;;;;;5.72;62.60;102503.25;4845842;28;45498;-53
2022/01/24 11:22:43;;;;;;;;;47.40;38.00;;;;;5.75;63.33;102499.34;4848934;29;45490;-53
2022/01/24 11:25:09;;;;;;;;;45.40;37.40;;;;;5.78;61.97;102502.72;4872735;29;45455;-49
2022/01/24 11:27:34;;;;;;;;;44.50;35.25;;;;;5.83;61.90;102494.09;4858772;29;46059;-49
2022/01/24 11:30:07;;;;;;;;;47.50;39.00;;;;;5.90;62.75;102494.41;4857077;29;46106;-50
2022/01/24 11:33:02;;;;;;;;;45.80;38.80;;;;;5.95;62.61;102498.47;4857316;29;45506;-49
2022/01/24 11:35:33;;;;;;;;;40.20;33.80;;;;;5.86;61.30;102472.03;4849171;29;45430;-54
2022/01/24 11:37:59;;;;;;;;;46.00;39.00;;;;;6.15;61.53;102494.97;4858722;29;46177;-56
2022/01/24 11:40:25;;;;;;;;;43.60;35.40;;;;;8.51;58.84;102496.28;4876173;29;45467;-51
2022/01/24 11:42:51;;;;;;;;;42.75;35.75;;;;;13.25;47.24;102404.56;4860472;29;45460;-53
2022/01/24 11:45:42;;;;;;;;;40.60;35.40;;;;;17.42;38.75;102468.47;4860225;29;45880;-50
2022/01/24 11:48:18;;;;;;;;;48.40;35.00;;;;;20.56;33.35;102476.69;4864636;29;46017;-51
2022/01/24 11:51:00;;;;;;;;;42.00;36.20;;;;;22.54;29.73;102468.06;4858065;29;45487;-54
2022/01/24 11:53:28;;;;;;;;;41.60;34.40;;;;;22.83;28.55;102468.03;4843706;29;45484;-54
2022/01/24 11:55:57;;;;;;;;;41.80;33.00;;;;;21.50;29.69;102457.53;4842587;29;45763;-57
2022/01/24 11:58:28;;;;;;;;;37.60;34.00;;;;;19.48;32.25;102451.00;4842232;29;45929;-56
2022/01/24 12:00:56;;;;;;;;;38.20;35.20;;;;;17.37;33.93;102471.03;4859354;29;45974;-55
2022/01/24 12:03:26;;;;;;;;;37.20;33.20;;;;;15.50;37.70;102468.41;4842790;29;45838;-54
2022/01/24 12:05:53;;;;;;;;;36.80;33.80;;;;;13.95;40.28;102456.72;4843064;29;45471;-55
2022/01/24 12:08:31;;;;;;;;;45.40;35.00;;;;;13.06;42.70;102469.38;4842376;29;47261;-55
2022/01/24 12:11:11;;;;;;;;;38.60;35.20;;;;;12.10;43.31;102472.47;4839033;29;45308;-55
2022/01/24 12:13:41;;;;;;;;;41.80;35.40;;;;;11.32;45.60;102476.63;4877956;29;45513;-54
2022/01/24 12:16:08;;;;;;;;;39.20;33.80;;;;;10.66;47.78;102452.81;4868158;29;45629;-54
2022/01/24 12:18:34;;;;;;;;;45.40;37.40;;;;;10.36;47.92;102473.50;4839682;29;46339;-51
2022/01/24 12:21:06;;;;;;;;;41.00;37.00;;;;;9.79;50.30;102453.06;4839548;29;46189;-56
2022/01/24 12:23:41;;;;;;;;;45.00;38.00;;;;;9.55;50.20;102471.13;4859286;29;45925;-50
2022/01/24 12:26:24;;;;;;;;;39.40;36.80;;;;;9.17;51.02;102468.66;4839928;29;45468;-50
2022/01/24 12:28:53;;;;;;;;;44.00;35.00;;;;;8.81;51.59;102466.84;4840523;29;46001;-56
2022/01/24 12:31:21;;;;;;;;;50.00;40.20;;;;;8.46;52.60;102439.28;4814555;29;45589;-56
2022/01/24 12:33:53;;;;;;;;;45.80;34.60;;;;;8.30;52.54;102456.41;4840377;29;45418;-51
2022/01/24 12:36:47;;;;;;;;;38.60;34.40;;;;;8.07;53.30;102461.44;4840297;29;45975;-54
2022/01/24 12:39:19;;;;;;;;;41.20;32.40;;;;;7.92;54.20;102469.28;4840597;29;46498;-53
2022/01/24 12:42:17;;;;;;;;;53.80;40.40;;;;;7.65;54.95;102433.63;4842063;29;45399;-55
2022/01/24 12:47:10;;;;;;;;;43.50;38.50;;;;;7.70;55.24;102472.25;4857642;29;45565;-53
2022/01/24 12:49:36;;;;;;;;;34.00;31.20;;;;;7.57;56.02;102467.16;4858379;29;45455;-51
2022/01/24 12:52:03;;;;;;;;;43.50;40.25;;;;;7.52;55.92;102466.72;4874915;29;45865;-55
2022/01/24 12:54:33;;;;;;;;;47.40;38.00;;;;;7.41;56.11;102458.72;4877204;29;45828;-54
2022/01/24 12:56:59;;;;;;;;;44.80;36.40;;;;;7.45;56.60;102460.16;4860504;29;45512;-52
2022/01/24 12:59:25;;;;;;;;;39.00;36.00;;;;;7.43;56.67;102457.56;4845189;29;46044;-49
2022/01/24 13:01:55;;;;;;;;;42.75;34.00;;;;;6.93;56.79;102384.97;4841167;29;45480;-52
2022/01/24 13:04:35;;;;;;;;;44.80;38.40;;;;;7.40;57.01;102459.72;4856511;29;45357;-50
2022/01/24 13:07:01;;;;;;;;;37.80;33.60;;;;;7.29;56.35;102445.25;4860403;29;45540;-51
2022/01/24 13:09:27;;;;;;;;;35.25;34.50;;;;;7.31;56.59;102445.13;4876162;29;46175;-55
2022/01/24 13:11:59;;;;;;;;;33.00;32.25;;;;;7.35;56.73;102462.06;4859760;29;45403;-56
2022/01/24 13:14:40;;;;;;;;;39.80;36.40;;;;;7.33;56.13;102459.47;4868107;29;45499;-51
2022/01/24 13:22:54;;;;;;;;;36.80;33.40;;;;;7.02;57.20;102411.41;4851920;29;45543;-54